Seavoyager — 9HUM8 — position and weather

sailwx.info

Track history (hours):
 
Tides and Currents Weather Stations Pressure Air Temp Water Temp Dewpoint Dewpoint Depression Visibility Wind Speed Wind Dir Waves Ship Positions

Seavoyager

Last reported at 2014-Oct-20 20:33 UTC. Time now 2014-Oct-20 21:18 UTC.
Position N 51°04' E 001°37'.

Length 273 m; draft 16.1 m.

Type: Ship (hazmat cat A). MMSI: 256439000.

Date/timePositionNaut miles runAvg speedWind from/ knotsBaromVisibWave heightAir tempDewpointWater temp
2014-Oct-20 20:33N 51°04' E 001°37'1312.9
2014-Oct-20 19:31N 50°53' E 001°25'1211.8
2014-Oct-20 18:33N 50°41' E 001°20'14911.2
2014-Oct-20 05:13N 50°24' W 002°32'913.3
2014-Oct-20 04:34N 50°24' W 002°46'1312.9
2014-Oct-20 03:34N 50°25' W 003°06'1111.4
2014-Oct-20 02:34N 50°25' W 003°24'7 6.9
2014-Oct-20 01:33N 50°18' W 003°25'1111.0
2014-Oct-20 00:34N 50°07' W 003°29'1211.4
2014-Oct-19 23:33N 49°59' W 003°42'  
Track history (hours):
 
Tides and Currents Weather Stations Pressure Air Temp Water Temp Dewpoint Dewpoint Depression Visibility Wind Speed Wind Dir Waves Ship Positions

Seavoyager

Last reported at 2014-Oct-20 20:33 UTC. Time now 2014-Oct-20 21:18 UTC.
Position N 51°04' E 001°37'.

Length 273 m; draft 16.1 m.

Type: Ship (hazmat cat A). MMSI: 256439000.

Date/timePositionNaut miles runAvg speedWind from/ knotsBaromVisibWave heightAir tempDewpointWater temp
2014-Oct-20 20:33N 51°04' E 001°37'1312.9
2014-Oct-20 19:31N 50°53' E 001°25'1211.8
2014-Oct-20 18:33N 50°41' E 001°20'14911.2
2014-Oct-20 05:13N 50°24' W 002°32'913.3
2014-Oct-20 04:34N 50°24' W 002°46'1312.9
2014-Oct-20 03:34N 50°25' W 003°06'1111.4
2014-Oct-20 02:34N 50°25' W 003°24'7 6.9
2014-Oct-20 01:33N 50°18' W 003°25'1111.0
2014-Oct-20 00:34N 50°07' W 003°29'1211.4
2014-Oct-19 23:33N 49°59' W 003°42'  

Dump ship's entire track history